sensor_id;sensor_type;location;lat;lon;timestamp;P1;durP1;ratioP1;P2;durP2;ratioP2
73456;SDS011;61691;53.072;6.582;2023-02-15T00:00:05;30.13;;;17.65;;
73456;SDS011;61691;53.072;6.582;2023-02-15T00:02:37;29.52;;;17.40;;
73456;SDS011;61691;53.072;6.582;2023-02-15T00:05:04;28.58;;;16.92;;
73456;SDS011;61691;53.072;6.582;2023-02-15T00:07:31;29.27;;;16.77;;
73456;SDS011;61691;53.072;6.582;2023-02-15T00:09:58;31.17;;;18.13;;
73456;SDS011;61691;53.072;6.582;2023-02-15T00:12:25;27.80;;;15.82;;
73456;SDS011;61691;53.072;6.582;2023-02-15T00:14:52;30.13;;;16.45;;
73456;SDS011;61691;53.072;6.582;2023-02-15T00:17:19;33.47;;;19.42;;
73456;SDS011;61691;53.072;6.582;2023-02-15T00:19:45;30.67;;;17.25;;
73456;SDS011;61691;53.072;6.582;2023-02-15T00:22:12;31.75;;;17.33;;
73456;SDS011;61691;53.072;6.582;2023-02-15T00:24:39;30.52;;;16.70;;
73456;SDS011;61691;53.072;6.582;2023-02-15T00:27:06;30.35;;;17.20;;
73456;SDS011;61691;53.072;6.582;2023-02-15T00:29:33;30.98;;;17.42;;
73456;SDS011;61691;53.072;6.582;2023-02-15T00:31:59;37.80;;;18.20;;
73456;SDS011;61691;53.072;6.582;2023-02-15T00:34:28;34.75;;;17.70;;
73456;SDS011;61691;53.072;6.582;2023-02-15T00:36:55;46.40;;;18.95;;
73456;SDS011;61691;53.072;6.582;2023-02-15T00:39:21;51.25;;;19.00;;
73456;SDS011;61691;53.072;6.582;2023-02-15T00:41:50;45.00;;;20.10;;
73456;SDS011;61691;53.072;6.582;2023-02-15T00:44:17;94.00;;;21.60;;
73456;SDS011;61691;53.072;6.582;2023-02-15T00:46:43;53.47;;;20.30;;
73456;SDS011;61691;53.072;6.582;2023-02-15T00:49:10;44.42;;;19.05;;
73456;SDS011;61691;53.072;6.582;2023-02-15T00:51:37;58.25;;;20.92;;
73456;SDS011;61691;53.072;6.582;2023-02-15T00:54:04;37.50;;;19.63;;
73456;SDS011;61691;53.072;6.582;2023-02-15T00:56:31;50.00;;;18.35;;
73456;SDS011;61691;53.072;6.582;2023-02-15T00:58:58;40.72;;;18.65;;
73456;SDS011;61691;53.072;6.582;2023-02-15T01:01:25;33.55;;;18.73;;
73456;SDS011;61691;53.072;6.582;2023-02-15T01:03:52;35.80;;;18.23;;
73456;SDS011;61691;53.072;6.582;2023-02-15T01:06:19;82.00;;;21.33;;
73456;SDS011;61691;53.072;6.582;2023-02-15T01:08:46;41.78;;;19.88;;
73456;SDS011;61691;53.072;6.582;2023-02-15T01:11:15;57.20;;;21.65;;
73456;SDS011;61691;53.072;6.582;2023-02-15T01:13:53;33.65;;;19.80;;
73456;SDS011;61691;53.072;6.582;2023-02-15T01:16:22;34.80;;;19.90;;
73456;SDS011;61691;53.072;6.582;2023-02-15T01:18:51;31.55;;;18.85;;
73456;SDS011;61691;53.072;6.582;2023-02-15T01:21:19;32.22;;;19.17;;
73456;SDS011;61691;53.072;6.582;2023-02-15T01:23:47;32.63;;;19.33;;
73456;SDS011;61691;53.072;6.582;2023-02-15T01:26:15;34.25;;;19.75;;
73456;SDS011;61691;53.072;6.582;2023-02-15T01:28:42;33.53;;;19.83;;
73456;SDS011;61691;53.072;6.582;2023-02-15T01:31:10;32.83;;;18.42;;
73456;SDS011;61691;53.072;6.582;2023-02-15T01:33:39;30.88;;;18.17;;
73456;SDS011;61691;53.072;6.582;2023-02-15T01:36:06;31.45;;;18.15;;
73456;SDS011;61691;53.072;6.582;2023-02-15T01:38:34;30.73;;;17.98;;
73456;SDS011;61691;53.072;6.582;2023-02-15T01:41:02;29.63;;;16.58;;
73456;SDS011;61691;53.072;6.582;2023-02-15T01:43:51;27.20;;;15.60;;
73456;SDS011;61691;53.072;6.582;2023-02-15T01:46:44;26.77;;;15.18;;
73456;SDS011;61691;53.072;6.582;2023-02-15T01:49:18;28.30;;;15.07;;
73456;SDS011;61691;53.072;6.582;2023-02-15T01:51:47;27.97;;;15.00;;
73456;SDS011;61691;53.072;6.582;2023-02-15T01:54:34;25.60;;;14.55;;
73456;SDS011;61691;53.072;6.582;2023-02-15T01:57:09;26.70;;;14.75;;
73456;SDS011;61691;53.072;6.582;2023-02-15T01:59:39;25.88;;;14.10;;
73456;SDS011;61691;53.072;6.582;2023-02-15T02:02:12;24.58;;;14.27;;
73456;SDS011;61691;53.072;6.582;2023-02-15T02:04:43;25.30;;;14.43;;
73456;SDS011;61691;53.072;6.582;2023-02-15T02:07:17;25.58;;;14.13;;
73456;SDS011;61691;53.072;6.582;2023-02-15T02:09:47;28.00;;;14.68;;
73456;SDS011;61691;53.072;6.582;2023-02-15T02:12:17;25.85;;;14.25;;
73456;SDS011;61691;53.072;6.582;2023-02-15T02:14:47;24.88;;;13.63;;
73456;SDS011;61691;53.072;6.582;2023-02-15T02:22:49;23.38;;;13.02;;
73456;SDS011;61691;53.072;6.582;2023-02-15T02:44:35;27.52;;;15.35;;
73456;SDS011;61691;53.072;6.582;2023-02-15T02:47:20;26.52;;;15.75;;
73456;SDS011;61691;53.072;6.582;2023-02-15T02:49:58;27.63;;;16.20;;
73456;SDS011;61691;53.072;6.582;2023-02-15T02:52:40;27.75;;;15.77;;
73456;SDS011;61691;53.072;6.582;2023-02-15T02:58:12;25.58;;;14.82;;
73456;SDS011;61691;53.072;6.582;2023-02-15T03:00:53;26.35;;;14.38;;
73456;SDS011;61691;53.072;6.582;2023-02-15T03:03:25;29.63;;;15.85;;
73456;SDS011;61691;53.072;6.582;2023-02-15T03:06:12;28.85;;;16.02;;
73456;SDS011;61691;53.072;6.582;2023-02-15T03:08:46;26.88;;;16.10;;
73456;SDS011;61691;53.072;6.582;2023-02-15T03:11:15;29.10;;;16.27;;
73456;SDS011;61691;53.072;6.582;2023-02-15T03:13:43;30.55;;;17.45;;
73456;SDS011;61691;53.072;6.582;2023-02-15T03:16:12;29.73;;;17.48;;
73456;SDS011;61691;53.072;6.582;2023-02-15T03:21:32;28.85;;;17.60;;
73456;SDS011;61691;53.072;6.582;2023-02-15T03:24:10;29.25;;;16.58;;
73456;SDS011;61691;53.072;6.582;2023-02-15T03:26:42;27.92;;;16.25;;
73456;SDS011;61691;53.072;6.582;2023-02-15T03:29:13;28.52;;;16.83;;
73456;SDS011;61691;53.072;6.582;2023-02-15T03:31:42;28.88;;;17.23;;
73456;SDS011;61691;53.072;6.582;2023-02-15T03:34:12;32.10;;;18.33;;
73456;SDS011;61691;53.072;6.582;2023-02-15T03:36:45;30.70;;;18.70;;
73456;SDS011;61691;53.072;6.582;2023-02-15T03:42:18;29.23;;;17.90;;
73456;SDS011;61691;53.072;6.582;2023-02-15T03:44:58;28.08;;;17.48;;
73456;SDS011;61691;53.072;6.582;2023-02-15T03:47:30;27.83;;;17.33;;
73456;SDS011;61691;53.072;6.582;2023-02-15T03:50:02;30.23;;;18.95;;
73456;SDS011;61691;53.072;6.582;2023-02-15T03:52:54;29.30;;;18.80;;
73456;SDS011;61691;53.072;6.582;2023-02-15T03:55:23;28.10;;;16.50;;
73456;SDS011;61691;53.072;6.582;2023-02-15T03:57:51;29.13;;;17.38;;
73456;SDS011;61691;53.072;6.582;2023-02-15T04:00:37;29.25;;;18.35;;
73456;SDS011;61691;53.072;6.582;2023-02-15T04:03:32;30.10;;;18.63;;
73456;SDS011;61691;53.072;6.582;2023-02-15T04:06:05;30.40;;;18.60;;
73456;SDS011;61691;53.072;6.582;2023-02-15T04:08:32;32.50;;;19.33;;
73456;SDS011;61691;53.072;6.582;2023-02-15T04:11:18;32.70;;;20.08;;
73456;SDS011;61691;53.072;6.582;2023-02-15T04:13:44;32.67;;;19.95;;
73456;SDS011;61691;53.072;6.582;2023-02-15T04:16:11;31.52;;;19.17;;
73456;SDS011;61691;53.072;6.582;2023-02-15T04:18:39;30.67;;;18.95;;
73456;SDS011;61691;53.072;6.582;2023-02-15T04:21:27;31.40;;;19.10;;
73456;SDS011;61691;53.072;6.582;2023-02-15T04:24:14;31.20;;;19.50;;
73456;SDS011;61691;53.072;6.582;2023-02-15T04:27:00;31.23;;;19.58;;
73456;SDS011;61691;53.072;6.582;2023-02-15T04:29:28;32.47;;;20.30;;
73456;SDS011;61691;53.072;6.582;2023-02-15T04:31:56;30.90;;;18.90;;
73456;SDS011;61691;53.072;6.582;2023-02-15T04:34:23;32.72;;;19.20;;
73456;SDS011;61691;53.072;6.582;2023-02-15T04:36:51;32.45;;;19.25;;
73456;SDS011;61691;53.072;6.582;2023-02-15T04:39:18;31.45;;;19.75;;
73456;SDS011;61691;53.072;6.582;2023-02-15T04:41:45;32.53;;;19.30;;
73456;SDS011;61691;53.072;6.582;2023-02-15T04:44:14;33.47;;;20.25;;
73456;SDS011;61691;53.072;6.582;2023-02-15T04:46:41;33.78;;;20.05;;
73456;SDS011;61691;53.072;6.582;2023-02-15T04:49:08;30.50;;;18.65;;
73456;SDS011;61691;53.072;6.582;2023-02-15T04:51:35;31.73;;;19.77;;
73456;SDS011;61691;53.072;6.582;2023-02-15T04:54:02;36.03;;;21.15;;
73456;SDS011;61691;53.072;6.582;2023-02-15T04:56:29;34.83;;;21.52;;
73456;SDS011;61691;53.072;6.582;2023-02-15T04:58:56;34.80;;;22.02;;
73456;SDS011;61691;53.072;6.582;2023-02-15T05:01:23;34.78;;;20.60;;
73456;SDS011;61691;53.072;6.582;2023-02-15T05:03:49;34.50;;;21.48;;
73456;SDS011;61691;53.072;6.582;2023-02-15T05:06:16;39.25;;;22.55;;
73456;SDS011;61691;53.072;6.582;2023-02-15T05:08:43;39.97;;;24.33;;
73456;SDS011;61691;53.072;6.582;2023-02-15T05:11:10;44.92;;;24.92;;
73456;SDS011;61691;53.072;6.582;2023-02-15T05:13:36;50.05;;;28.60;;
73456;SDS011;61691;53.072;6.582;2023-02-15T05:16:03;47.10;;;27.13;;
73456;SDS011;61691;53.072;6.582;2023-02-15T05:18:30;51.15;;;27.15;;
73456;SDS011;61691;53.072;6.582;2023-02-15T05:20:57;43.97;;;26.38;;
73456;SDS011;61691;53.072;6.582;2023-02-15T05:23:23;48.28;;;27.77;;
73456;SDS011;61691;53.072;6.582;2023-02-15T05:25:51;46.60;;;28.40;;
73456;SDS011;61691;53.072;6.582;2023-02-15T05:28:37;45.25;;;26.60;;
73456;SDS011;61691;53.072;6.582;2023-02-15T05:31:09;46.55;;;26.80;;
73456;SDS011;61691;53.072;6.582;2023-02-15T05:33:45;53.20;;;28.45;;
73456;SDS011;61691;53.072;6.582;2023-02-15T05:36:12;46.30;;;26.95;;
73456;SDS011;61691;53.072;6.582;2023-02-15T05:38:39;53.40;;;29.45;;
73456;SDS011;61691;53.072;6.582;2023-02-15T05:41:06;137.18;;;40.83;;
73456;SDS011;61691;53.072;6.582;2023-02-15T05:43:34;174.60;;;46.80;;
73456;SDS011;61691;53.072;6.582;2023-02-15T05:46:01;192.93;;;46.47;;
73456;SDS011;61691;53.072;6.582;2023-02-15T05:48:29;153.90;;;44.92;;
73456;SDS011;61691;53.072;6.582;2023-02-15T05:51:06;89.95;;;39.15;;
73456;SDS011;61691;53.072;6.582;2023-02-15T05:53:36;267.88;;;60.63;;
73456;SDS011;61691;53.072;6.582;2023-02-15T05:56:04;158.88;;;47.83;;
73456;SDS011;61691;53.072;6.582;2023-02-15T05:58:34;125.18;;;42.75;;
73456;SDS011;61691;53.072;6.582;2023-02-15T06:03:38;166.15;;;49.75;;
73456;SDS011;61691;53.072;6.582;2023-02-15T06:06:06;158.60;;;49.08;;
73456;SDS011;61691;53.072;6.582;2023-02-15T06:08:34;102.07;;;41.50;;
73456;SDS011;61691;53.072;6.582;2023-02-15T06:11:02;121.50;;;45.22;;
73456;SDS011;61691;53.072;6.582;2023-02-15T06:13:30;106.97;;;43.53;;
73456;SDS011;61691;53.072;6.582;2023-02-15T06:15:57;90.97;;;41.05;;
73456;SDS011;61691;53.072;6.582;2023-02-15T06:18:24;90.03;;;41.20;;
73456;SDS011;61691;53.072;6.582;2023-02-15T06:20:51;75.47;;;38.42;;
73456;SDS011;61691;53.072;6.582;2023-02-15T06:23:18;53.92;;;34.30;;
73456;SDS011;61691;53.072;6.582;2023-02-15T06:25:45;58.65;;;35.20;;
73456;SDS011;61691;53.072;6.582;2023-02-15T06:28:12;56.75;;;33.10;;
73456;SDS011;61691;53.072;6.582;2023-02-15T06:30:39;55.65;;;34.63;;
73456;SDS011;61691;53.072;6.582;2023-02-15T06:33:06;50.13;;;30.33;;
73456;SDS011;61691;53.072;6.582;2023-02-15T06:35:33;52.13;;;31.40;;
73456;SDS011;61691;53.072;6.582;2023-02-15T06:38:00;46.53;;;29.83;;
73456;SDS011;61691;53.072;6.582;2023-02-15T06:40:26;43.90;;;28.60;;
73456;SDS011;61691;53.072;6.582;2023-02-15T06:42:53;44.47;;;28.80;;
73456;SDS011;61691;53.072;6.582;2023-02-15T06:45:20;46.92;;;30.73;;
73456;SDS011;61691;53.072;6.582;2023-02-15T06:47:47;42.92;;;26.33;;
73456;SDS011;61691;53.072;6.582;2023-02-15T06:50:14;44.83;;;29.52;;
73456;SDS011;61691;53.072;6.582;2023-02-15T06:52:40;45.15;;;28.92;;
73456;SDS011;61691;53.072;6.582;2023-02-15T06:55:07;45.90;;;29.48;;
73456;SDS011;61691;53.072;6.582;2023-02-15T06:57:34;48.53;;;30.65;;
73456;SDS011;61691;53.072;6.582;2023-02-15T07:00:01;48.42;;;29.23;;
73456;SDS011;61691;53.072;6.582;2023-02-15T07:02:28;45.17;;;28.23;;
73456;SDS011;61691;53.072;6.582;2023-02-15T07:04:55;46.90;;;28.73;;
73456;SDS011;61691;53.072;6.582;2023-02-15T07:07:22;46.30;;;29.40;;
73456;SDS011;61691;53.072;6.582;2023-02-15T07:09:49;43.67;;;28.55;;
73456;SDS011;61691;53.072;6.582;2023-02-15T07:12:16;43.05;;;27.90;;
73456;SDS011;61691;53.072;6.582;2023-02-15T07:15:01;44.95;;;27.35;;
73456;SDS011;61691;53.072;6.582;2023-02-15T07:17:30;43.35;;;26.65;;
73456;SDS011;61691;53.072;6.582;2023-02-15T07:20:05;42.65;;;27.23;;
73456;SDS011;61691;53.072;6.582;2023-02-15T07:22:34;39.58;;;25.42;;
73456;SDS011;61691;53.072;6.582;2023-02-15T07:25:06;41.88;;;24.73;;
73456;SDS011;61691;53.072;6.582;2023-02-15T07:27:34;41.35;;;25.30;;
73456;SDS011;61691;53.072;6.582;2023-02-15T07:30:01;38.05;;;24.75;;
73456;SDS011;61691;53.072;6.582;2023-02-15T07:32:29;44.38;;;26.05;;
73456;SDS011;61691;53.072;6.582;2023-02-15T07:34:57;42.00;;;25.92;;
73456;SDS011;61691;53.072;6.582;2023-02-15T07:37:25;44.90;;;26.95;;
73456;SDS011;61691;53.072;6.582;2023-02-15T07:39:51;42.28;;;25.70;;
73456;SDS011;61691;53.072;6.582;2023-02-15T07:42:18;40.85;;;25.30;;
73456;SDS011;61691;53.072;6.582;2023-02-15T07:44:47;38.08;;;24.42;;
73456;SDS011;61691;53.072;6.582;2023-02-15T07:47:14;41.90;;;26.73;;
73456;SDS011;61691;53.072;6.582;2023-02-15T07:49:41;41.30;;;26.60;;
73456;SDS011;61691;53.072;6.582;2023-02-15T07:52:08;38.38;;;24.92;;
73456;SDS011;61691;53.072;6.582;2023-02-15T07:54:34;40.28;;;25.25;;
73456;SDS011;61691;53.072;6.582;2023-02-15T07:57:01;41.25;;;25.92;;
73456;SDS011;61691;53.072;6.582;2023-02-15T07:59:28;40.05;;;23.98;;
73456;SDS011;61691;53.072;6.582;2023-02-15T08:01:55;42.28;;;25.83;;
73456;SDS011;61691;53.072;6.582;2023-02-15T08:04:23;38.05;;;23.88;;
73456;SDS011;61691;53.072;6.582;2023-02-15T08:06:53;41.85;;;25.92;;
73456;SDS011;61691;53.072;6.582;2023-02-15T08:09:21;40.15;;;24.88;;
73456;SDS011;61691;53.072;6.582;2023-02-15T08:11:48;41.17;;;25.65;;
73456;SDS011;61691;53.072;6.582;2023-02-15T08:14:17;42.05;;;26.30;;
73456;SDS011;61691;53.072;6.582;2023-02-15T08:19:25;38.42;;;24.17;;
73456;SDS011;61691;53.072;6.582;2023-02-15T08:21:55;39.72;;;24.15;;
73456;SDS011;61691;53.072;6.582;2023-02-15T08:24:24;41.95;;;24.45;;
73456;SDS011;61691;53.072;6.582;2023-02-15T08:26:58;41.63;;;26.70;;
73456;SDS011;61691;53.072;6.582;2023-02-15T08:29:26;42.75;;;25.55;;
73456;SDS011;61691;53.072;6.582;2023-02-15T08:31:55;43.83;;;25.60;;
73456;SDS011;61691;53.072;6.582;2023-02-15T08:34:33;41.15;;;26.48;;
73456;SDS011;61691;53.072;6.582;2023-02-15T08:37:02;41.03;;;25.35;;
73456;SDS011;61691;53.072;6.582;2023-02-15T08:39:29;39.88;;;24.60;;
73456;SDS011;61691;53.072;6.582;2023-02-15T08:41:56;42.85;;;25.88;;
73456;SDS011;61691;53.072;6.582;2023-02-15T08:44:23;43.95;;;26.42;;
73456;SDS011;61691;53.072;6.582;2023-02-15T08:46:50;42.60;;;26.83;;
73456;SDS011;61691;53.072;6.582;2023-02-15T08:49:18;40.92;;;24.98;;
73456;SDS011;61691;53.072;6.582;2023-02-15T08:51:46;39.63;;;24.98;;
73456;SDS011;61691;53.072;6.582;2023-02-15T08:54:16;41.35;;;25.20;;
73456;SDS011;61691;53.072;6.582;2023-02-15T08:56:44;43.58;;;25.50;;
73456;SDS011;61691;53.072;6.582;2023-02-15T08:59:15;40.83;;;24.92;;
73456;SDS011;61691;53.072;6.582;2023-02-15T09:01:50;41.78;;;26.58;;
73456;SDS011;61691;53.072;6.582;2023-02-15T09:04:18;43.00;;;26.65;;
73456;SDS011;61691;53.072;6.582;2023-02-15T09:06:46;40.00;;;24.73;;
73456;SDS011;61691;53.072;6.582;2023-02-15T09:09:15;39.10;;;24.55;;
73456;SDS011;61691;53.072;6.582;2023-02-15T09:11:44;41.33;;;25.67;;
73456;SDS011;61691;53.072;6.582;2023-02-15T09:14:17;43.05;;;26.90;;
73456;SDS011;61691;53.072;6.582;2023-02-15T09:16:46;43.30;;;27.05;;
73456;SDS011;61691;53.072;6.582;2023-02-15T09:19:16;41.85;;;25.58;;
73456;SDS011;61691;53.072;6.582;2023-02-15T09:21:44;41.05;;;26.00;;
73456;SDS011;61691;53.072;6.582;2023-02-15T09:24:13;42.05;;;26.27;;
73456;SDS011;61691;53.072;6.582;2023-02-15T09:26:42;44.72;;;27.15;;
73456;SDS011;61691;53.072;6.582;2023-02-15T09:29:11;41.67;;;26.35;;
73456;SDS011;61691;53.072;6.582;2023-02-15T09:31:40;41.85;;;26.83;;
73456;SDS011;61691;53.072;6.582;2023-02-15T09:34:14;44.17;;;27.75;;
73456;SDS011;61691;53.072;6.582;2023-02-15T09:36:43;42.35;;;25.70;;
73456;SDS011;61691;53.072;6.582;2023-02-15T09:39:12;43.53;;;25.90;;
73456;SDS011;61691;53.072;6.582;2023-02-15T10:05:11;42.30;;;26.02;;
73456;SDS011;61691;53.072;6.582;2023-02-15T10:17:31;41.42;;;26.95;;
73456;SDS011;61691;53.072;6.582;2023-02-15T10:31:27;43.83;;;26.92;;
73456;SDS011;61691;53.072;6.582;2023-02-15T10:34:08;41.53;;;25.80;;
73456;SDS011;61691;53.072;6.582;2023-02-15T10:45:11;44.13;;;27.63;;
73456;SDS011;61691;53.072;6.582;2023-02-15T10:50:36;42.63;;;26.45;;
73456;SDS011;61691;53.072;6.582;2023-02-15T10:55:48;44.85;;;27.27;;
73456;SDS011;61691;53.072;6.582;2023-02-15T10:58:34;43.20;;;28.27;;
73456;SDS011;61691;53.072;6.582;2023-02-15T11:06:21;40.80;;;26.73;;
73456;SDS011;61691;53.072;6.582;2023-02-15T11:08:56;39.45;;;25.60;;
73456;SDS011;61691;53.072;6.582;2023-02-15T11:11:28;42.95;;;26.05;;
73456;SDS011;61691;53.072;6.582;2023-02-15T11:14:08;42.03;;;25.95;;
73456;SDS011;61691;53.072;6.582;2023-02-15T11:16:57;44.80;;;26.73;;
73456;SDS011;61691;53.072;6.582;2023-02-15T11:19:30;40.42;;;25.35;;
73456;SDS011;61691;53.072;6.582;2023-02-15T11:22:02;42.95;;;24.83;;
73456;SDS011;61691;53.072;6.582;2023-02-15T11:24:33;46.60;;;28.10;;
73456;SDS011;61691;53.072;6.582;2023-02-15T11:27:26;45.90;;;26.10;;
73456;SDS011;61691;53.072;6.582;2023-02-15T11:30:11;42.45;;;25.10;;
73456;SDS011;61691;53.072;6.582;2023-02-15T11:32:51;42.13;;;25.02;;
73456;SDS011;61691;53.072;6.582;2023-02-15T11:38:12;41.60;;;25.08;;
73456;SDS011;61691;53.072;6.582;2023-02-15T11:43:21;43.70;;;25.98;;
73456;SDS011;61691;53.072;6.582;2023-02-15T11:45:50;42.50;;;23.65;;
73456;SDS011;61691;53.072;6.582;2023-02-15T11:48:17;39.75;;;22.95;;
73456;SDS011;61691;53.072;6.582;2023-02-15T11:50:44;40.47;;;24.00;;
73456;SDS011;61691;53.072;6.582;2023-02-15T11:53:12;42.50;;;24.30;;
73456;SDS011;61691;53.072;6.582;2023-02-15T11:55:46;39.88;;;23.38;;
73456;SDS011;61691;53.072;6.582;2023-02-15T11:58:35;41.35;;;25.25;;
73456;SDS011;61691;53.072;6.582;2023-02-15T12:01:11;42.22;;;23.77;;
73456;SDS011;61691;53.072;6.582;2023-02-15T12:03:50;43.75;;;26.05;;
73456;SDS011;61691;53.072;6.582;2023-02-15T12:06:21;40.78;;;25.23;;
73456;SDS011;61691;53.072;6.582;2023-02-15T12:09:04;41.42;;;25.80;;
73456;SDS011;61691;53.072;6.582;2023-02-15T12:11:52;42.72;;;26.95;;
73456;SDS011;61691;53.072;6.582;2023-02-15T12:14:19;41.13;;;26.20;;
73456;SDS011;61691;53.072;6.582;2023-02-15T12:16:47;42.63;;;27.52;;
73456;SDS011;61691;53.072;6.582;2023-02-15T12:19:51;46.13;;;27.05;;
73456;SDS011;61691;53.072;6.582;2023-02-15T12:22:33;44.53;;;27.90;;
73456;SDS011;61691;53.072;6.582;2023-02-15T12:25:04;46.20;;;28.50;;
73456;SDS011;61691;53.072;6.582;2023-02-15T12:28:24;48.13;;;28.10;;
73456;SDS011;61691;53.072;6.582;2023-02-15T12:30:56;44.38;;;29.77;;
73456;SDS011;61691;53.072;6.582;2023-02-15T12:33:34;45.30;;;28.70;;
73456;SDS011;61691;53.072;6.582;2023-02-15T12:39:02;45.53;;;28.23;;
73456;SDS011;61691;53.072;6.582;2023-02-15T12:41:29;44.83;;;28.60;;
73456;SDS011;61691;53.072;6.582;2023-02-15T12:44:31;46.00;;;29.13;;
73456;SDS011;61691;53.072;6.582;2023-02-15T12:46:56;45.67;;;30.00;;
73456;SDS011;61691;53.072;6.582;2023-02-15T12:49:32;44.03;;;29.08;;
73456;SDS011;61691;53.072;6.582;2023-02-15T12:52:23;44.55;;;28.00;;
73456;SDS011;61691;53.072;6.582;2023-02-15T12:54:50;42.42;;;27.42;;
73456;SDS011;61691;53.072;6.582;2023-02-15T12:57:26;46.40;;;26.67;;
73456;SDS011;61691;53.072;6.582;2023-02-15T13:05:14;44.15;;;27.50;;
73456;SDS011;61691;53.072;6.582;2023-02-15T13:07:56;48.28;;;29.55;;
73456;SDS011;61691;53.072;6.582;2023-02-15T13:10:28;43.85;;;25.50;;
73456;SDS011;61691;53.072;6.582;2023-02-15T13:13:00;41.60;;;25.33;;
73456;SDS011;61691;53.072;6.582;2023-02-15T13:15:31;43.70;;;25.80;;
73456;SDS011;61691;53.072;6.582;2023-02-15T13:18:03;40.28;;;23.27;;
73456;SDS011;61691;53.072;6.582;2023-02-15T13:20:37;42.67;;;26.23;;
73456;SDS011;61691;53.072;6.582;2023-02-15T13:23:42;41.42;;;25.10;;
73456;SDS011;61691;53.072;6.582;2023-02-15T13:26:03;41.17;;;24.27;;
73456;SDS011;61691;53.072;6.582;2023-02-15T13:28:43;39.85;;;24.05;;
73456;SDS011;61691;53.072;6.582;2023-02-15T13:31:20;45.92;;;24.33;;
73456;SDS011;61691;53.072;6.582;2023-02-15T13:33:56;38.75;;;22.60;;
73456;SDS011;61691;53.072;6.582;2023-02-15T13:36:41;37.25;;;21.70;;
73456;SDS011;61691;53.072;6.582;2023-02-15T13:39:41;37.13;;;21.65;;
73456;SDS011;61691;53.072;6.582;2023-02-15T13:42:22;39.63;;;23.27;;
73456;SDS011;61691;53.072;6.582;2023-02-15T13:45:01;39.05;;;24.23;;
73456;SDS011;61691;53.072;6.582;2023-02-15T13:47:52;41.15;;;23.77;;
73456;SDS011;61691;53.072;6.582;2023-02-15T13:50:31;43.10;;;25.42;;
73456;SDS011;61691;53.072;6.582;2023-02-15T13:59:06;41.65;;;25.13;;
73456;SDS011;61691;53.072;6.582;2023-02-15T14:07:19;46.22;;;26.23;;
73456;SDS011;61691;53.072;6.582;2023-02-15T14:10:04;39.67;;;24.10;;
73456;SDS011;61691;53.072;6.582;2023-02-15T14:27:09;39.00;;;23.67;;
73456;SDS011;61691;53.072;6.582;2023-02-15T14:32:12;38.65;;;23.40;;
73456;SDS011;61691;53.072;6.582;2023-02-15T14:34:48;42.10;;;25.52;;
73456;SDS011;61691;53.072;6.582;2023-02-15T14:37:20;38.60;;;23.40;;
73456;SDS011;61691;53.072;6.582;2023-02-15T14:40:16;41.17;;;23.67;;
73456;SDS011;61691;53.072;6.582;2023-02-15T14:43:11;39.72;;;23.65;;
73456;SDS011;61691;53.072;6.582;2023-02-15T14:48:57;38.10;;;22.52;;
73456;SDS011;61691;53.072;6.582;2023-02-15T14:56:44;39.85;;;23.83;;
73456;SDS011;61691;53.072;6.582;2023-02-15T14:59:35;36.95;;;22.92;;
73456;SDS011;61691;53.072;6.582;2023-02-15T15:04:36;36.45;;;22.42;;
73456;SDS011;61691;53.072;6.582;2023-02-15T15:07:23;38.25;;;22.58;;
73456;SDS011;61691;53.072;6.582;2023-02-15T15:10:03;38.38;;;23.92;;
73456;SDS011;61691;53.072;6.582;2023-02-15T15:12:44;37.97;;;23.30;;
73456;SDS011;61691;53.072;6.582;2023-02-15T15:18:07;39.10;;;23.52;;
73456;SDS011;61691;53.072;6.582;2023-02-15T15:25:51;40.03;;;25.73;;
73456;SDS011;61691;53.072;6.582;2023-02-15T15:51:00;38.17;;;23.02;;
73456;SDS011;61691;53.072;6.582;2023-02-15T15:53:32;40.20;;;25.52;;
73456;SDS011;61691;53.072;6.582;2023-02-15T15:56:06;43.00;;;26.50;;
73456;SDS011;61691;53.072;6.582;2023-02-15T15:58:40;43.38;;;26.05;;
73456;SDS011;61691;53.072;6.582;2023-02-15T16:01:11;43.65;;;26.20;;
73456;SDS011;61691;53.072;6.582;2023-02-15T16:03:50;42.85;;;26.13;;
73456;SDS011;61691;53.072;6.582;2023-02-15T16:09:12;52.10;;;28.92;;
73456;SDS011;61691;53.072;6.582;2023-02-15T16:11:39;41.97;;;26.27;;
73456;SDS011;61691;53.072;6.582;2023-02-15T16:14:15;42.53;;;25.80;;
73456;SDS011;61691;53.072;6.582;2023-02-15T16:17:14;39.80;;;24.00;;
73456;SDS011;61691;53.072;6.582;2023-02-15T16:19:46;38.15;;;22.55;;
73456;SDS011;61691;53.072;6.582;2023-02-15T16:22:15;42.83;;;26.58;;
73456;SDS011;61691;53.072;6.582;2023-02-15T16:29:54;40.03;;;23.83;;
73456;SDS011;61691;53.072;6.582;2023-02-15T16:32:22;38.97;;;23.38;;
73456;SDS011;61691;53.072;6.582;2023-02-15T16:34:54;38.90;;;22.20;;
73456;SDS011;61691;53.072;6.582;2023-02-15T16:37:24;39.63;;;23.13;;
73456;SDS011;61691;53.072;6.582;2023-02-15T16:39:54;42.88;;;23.08;;
73456;SDS011;61691;53.072;6.582;2023-02-15T16:42:22;41.50;;;25.20;;
73456;SDS011;61691;53.072;6.582;2023-02-15T16:44:57;38.33;;;24.42;;
73456;SDS011;61691;53.072;6.582;2023-02-15T16:47:44;44.95;;;28.27;;
73456;SDS011;61691;53.072;6.582;2023-02-15T16:50:20;40.78;;;25.02;;
73456;SDS011;61691;53.072;6.582;2023-02-15T16:53:02;42.00;;;24.13;;
73456;SDS011;61691;53.072;6.582;2023-02-15T16:55:37;42.80;;;24.98;;
73456;SDS011;61691;53.072;6.582;2023-02-15T16:58:07;39.78;;;24.10;;
73456;SDS011;61691;53.072;6.582;2023-02-15T17:00:43;38.85;;;24.20;;
73456;SDS011;61691;53.072;6.582;2023-02-15T17:08:16;41.80;;;24.75;;
73456;SDS011;61691;53.072;6.582;2023-02-15T17:10:46;39.85;;;23.73;;
73456;SDS011;61691;53.072;6.582;2023-02-15T17:13:31;41.83;;;24.70;;
73456;SDS011;61691;53.072;6.582;2023-02-15T17:21:12;40.88;;;24.27;;
73456;SDS011;61691;53.072;6.582;2023-02-15T17:23:45;40.22;;;22.98;;
73456;SDS011;61691;53.072;6.582;2023-02-15T17:26:14;43.45;;;25.55;;
73456;SDS011;61691;53.072;6.582;2023-02-15T17:28:50;42.22;;;24.45;;
73456;SDS011;61691;53.072;6.582;2023-02-15T17:31:20;42.15;;;25.10;;
73456;SDS011;61691;53.072;6.582;2023-02-15T17:33:50;39.00;;;23.87;;
73456;SDS011;61691;53.072;6.582;2023-02-15T17:36:21;39.72;;;23.02;;
73456;SDS011;61691;53.072;6.582;2023-02-15T17:41:46;42.63;;;24.55;;
73456;SDS011;61691;53.072;6.582;2023-02-15T17:44:14;43.60;;;25.55;;
73456;SDS011;61691;53.072;6.582;2023-02-15T17:46:41;42.28;;;24.77;;
73456;SDS011;61691;53.072;6.582;2023-02-15T17:49:14;42.75;;;24.92;;
73456;SDS011;61691;53.072;6.582;2023-02-15T17:51:49;41.25;;;24.92;;
73456;SDS011;61691;53.072;6.582;2023-02-15T17:54:16;40.00;;;24.33;;
73456;SDS011;61691;53.072;6.582;2023-02-15T17:57:05;40.97;;;24.75;;
73456;SDS011;61691;53.072;6.582;2023-02-15T17:59:38;39.50;;;23.90;;
73456;SDS011;61691;53.072;6.582;2023-02-15T18:02:24;44.22;;;26.58;;
73456;SDS011;61691;53.072;6.582;2023-02-15T18:05:12;41.28;;;25.58;;
73456;SDS011;61691;53.072;6.582;2023-02-15T18:07:58;42.47;;;24.58;;
73456;SDS011;61691;53.072;6.582;2023-02-15T18:10:44;44.28;;;25.20;;
73456;SDS011;61691;53.072;6.582;2023-02-15T18:13:30;43.83;;;24.98;;
73456;SDS011;61691;53.072;6.582;2023-02-15T18:15:57;42.17;;;25.73;;
73456;SDS011;61691;53.072;6.582;2023-02-15T18:18:24;41.85;;;24.50;;